createdAt,value
2022-09-20T13:51:57.715Z,100727.12
2022-09-20T13:54:33.710Z,100728.13
2022-09-20T13:57:19.371Z,100729.68
2022-09-20T13:59:48.936Z,100730.98
2022-09-20T14:02:44.209Z,100734.50
2022-09-20T14:05:19.939Z,100738.80
2022-09-20T14:07:49.810Z,100745.13
2022-09-20T14:10:32.676Z,100738.66
2022-09-20T14:13:07.092Z,100739.99
2022-09-20T14:15:48.168Z,100736.76
2022-09-20T14:18:21.456Z,100739.30
2022-09-20T14:20:50.485Z,100732.14
2022-09-20T14:23:26.615Z,100736.95
2022-09-20T14:26:16.846Z,100740.97
2022-09-20T14:28:46.024Z,100744.17
2022-09-20T14:31:34.923Z,100747.58
2022-09-20T14:34:05.150Z,100746.05
2022-09-20T14:36:33.932Z,100743.73
2022-09-20T14:39:05.829Z,100749.10
2022-09-20T14:41:41.343Z,100747.73
2022-09-20T14:44:34.112Z,100750.08
2022-09-20T14:47:15.820Z,100750.73
2022-09-20T14:49:44.696Z,100749.49
2022-09-20T14:52:28.724Z,100750.72
2022-09-20T14:55:01.758Z,100751.88
2022-09-20T14:57:30.563Z,100748.67
2022-09-20T15:00:05.013Z,100750.36
2022-09-20T15:02:36.671Z,100745.59
2022-09-20T15:05:06.004Z,100748.21
2022-09-20T15:07:37.657Z,100747.88
2022-09-20T15:10:13.259Z,100744.56
2022-09-20T15:12:42.607Z,100746.61
2022-09-20T15:15:17.821Z,100746.48
2022-09-20T15:17:47.716Z,100748.06
2022-09-20T15:20:24.684Z,100750.96
2022-09-20T15:22:53.605Z,100748.71
2022-09-20T15:25:22.455Z,100747.86
2022-09-20T15:27:51.099Z,100751.05
2022-09-20T15:30:23.359Z,100751.48
2022-09-20T15:32:53.408Z,100751.86
2022-09-20T15:35:22.046Z,100755.31
2022-09-20T15:37:50.633Z,100756.83
2022-09-20T15:40:19.358Z,100757.03
2022-09-20T15:42:48.169Z,100759.55
2022-09-20T15:45:16.840Z,100756.31
2022-09-20T15:47:46.950Z,100756.92
2022-09-20T15:50:16.467Z,100757.24
2022-09-20T15:52:45.231Z,100763.12
2022-09-20T15:55:13.821Z,100761.79
2022-09-20T15:57:42.416Z,100763.13
2022-09-20T16:00:11.798Z,100761.58
2022-09-20T16:02:40.439Z,100766.27
2022-09-20T16:05:10.353Z,100769.30
2022-09-20T16:07:38.928Z,100772.87
2022-09-20T16:10:08.777Z,100772.64
2022-09-20T16:12:37.450Z,100777.90
2022-09-20T16:15:07.543Z,100781.07
2022-09-20T16:17:54.870Z,100781.61
2022-09-20T16:20:23.850Z,100785.38
2022-09-20T16:22:52.604Z,100789.57
2022-09-20T16:25:21.276Z,100794.98
2022-09-20T16:27:49.875Z,100795.30
2022-09-20T16:30:20.034Z,100802.88
2022-09-20T16:32:49.330Z,100804.45
2022-09-20T16:35:19.800Z,100808.38
2022-09-20T16:37:48.391Z,100803.85
2022-09-20T16:40:17.179Z,100807.05
2022-09-20T16:42:52.047Z,100813.65
2022-09-20T16:45:21.717Z,100818.20
2022-09-20T16:47:50.405Z,100809.73
2022-09-20T16:50:19.666Z,100826.81
2022-09-20T16:52:48.335Z,100829.02
2022-09-20T16:55:18.209Z,100831.63
2022-09-20T16:57:53.089Z,100829.09
2022-09-20T17:00:22.267Z,100825.60
2022-09-20T17:02:51.503Z,100829.93
2022-09-20T17:05:20.254Z,100830.80
2022-09-20T17:07:54.030Z,100838.58
2022-09-20T17:10:24.681Z,100840.18
2022-09-20T17:12:57.755Z,100842.82
2022-09-20T17:15:26.231Z,100841.23
2022-09-20T17:17:54.859Z,100843.75
2022-09-20T17:20:27.363Z,100848.91
2022-09-20T17:22:58.566Z,100845.95
2022-09-20T17:25:28.585Z,100852.27
2022-09-20T17:27:57.236Z,100855.63
2022-09-20T17:30:29.564Z,100852.94
2022-09-20T17:32:58.202Z,100861.52
2022-09-20T17:35:28.527Z,100862.35
2022-09-20T17:37:57.331Z,100868.20
2022-09-20T17:40:25.974Z,100869.93
2022-09-20T17:43:03.567Z,100875.08
2022-09-20T17:45:33.753Z,100876.29
2022-09-20T17:48:03.420Z,100878.55
2022-09-20T17:50:33.044Z,100876.14
2022-09-20T17:53:01.632Z,100877.38
2022-09-20T17:55:30.352Z,100880.48
2022-09-20T17:57:59.999Z,100883.98
2022-09-20T18:00:31.100Z,100886.15
2022-09-20T18:03:04.131Z,100892.41
2022-09-20T18:05:33.668Z,100890.60
2022-09-20T18:08:03.555Z,100894.23
2022-09-20T18:10:32.727Z,100899.66
2022-09-20T18:13:01.705Z,100899.60
2022-09-20T18:15:32.084Z,100901.56
2022-09-20T18:18:03.812Z,100903.97
2022-09-20T18:20:35.489Z,100907.30
2022-09-20T18:23:05.542Z,100909.59
2022-09-20T18:25:55.264Z,100910.48
2022-09-20T18:28:23.864Z,100913.44
2022-09-20T18:31:05.569Z,100913.46
2022-09-20T18:33:34.263Z,100917.75
2022-09-20T18:36:05.524Z,100916.16
2022-09-20T18:38:34.202Z,100920.66
2022-09-20T18:41:04.098Z,100919.64
2022-09-20T18:43:35.762Z,100919.64
2022-09-20T18:46:04.648Z,100924.45
2022-09-20T18:48:34.076Z,100925.04
2022-09-20T18:51:05.203Z,100920.89
2022-09-20T18:53:37.761Z,100925.37
2022-09-20T18:56:28.603Z,100924.84
2022-09-20T18:59:01.757Z,100928.89
2022-09-20T19:01:55.430Z,100929.92
2022-09-20T19:05:03.842Z,100927.81
2022-09-20T19:07:54.405Z,100925.41
2022-09-20T19:10:39.348Z,100921.98
2022-09-20T19:13:52.243Z,100925.20
2022-09-20T19:16:33.663Z,100921.63
2022-09-20T19:19:37.894Z,100929.23
2022-09-20T19:22:51.201Z,100935.16
2022-09-20T19:25:45.315Z,100936.61
2022-09-20T19:28:16.231Z,100936.04
2022-09-20T19:30:45.749Z,100936.02
2022-09-20T19:33:19.513Z,100934.64
2022-09-20T19:35:51.890Z,100943.98
2022-09-20T19:38:57.101Z,100943.29
2022-09-20T19:41:38.828Z,100944.29
2022-09-20T19:44:54.618Z,100951.17
2022-09-20T19:47:46.034Z,100947.28
2022-09-20T19:50:50.521Z,100951.23
2022-09-20T19:53:27.962Z,100952.16
2022-09-20T19:56:14.842Z,100952.64
2022-09-20T19:58:45.711Z,100954.04
2022-09-20T20:01:14.806Z,100955.56
2022-09-20T20:03:46.612Z,100959.29
2022-09-20T20:06:34.329Z,100959.15
2022-09-20T20:09:06.277Z,100958.39
2022-09-20T20:12:01.666Z,100958.83
2022-09-20T20:15:16.345Z,100957.73
2022-09-20T20:17:56.161Z,100961.74
2022-09-20T20:20:40.185Z,100963.16
2022-09-20T20:23:31.295Z,100959.84
2022-09-20T20:26:24.119Z,100965.05
2022-09-20T20:28:53.228Z,100966.42
2022-09-20T20:31:23.188Z,100971.27
2022-09-20T20:33:51.828Z,100969.41
2022-09-20T20:36:20.491Z,100973.92
2022-09-20T20:38:53.352Z,100975.84
2022-09-20T20:41:22.403Z,100973.47
2022-09-20T20:43:56.490Z,100971.98
2022-09-20T20:46:26.009Z,100974.61
2022-09-20T20:48:54.754Z,100974.80
2022-09-20T20:51:23.601Z,100979.06
2022-09-20T20:53:55.241Z,100979.95
2022-09-20T20:56:27.728Z,100974.87
2022-09-20T20:59:01.572Z,100977.15
2022-09-20T21:01:37.145Z,100974.34
2022-09-20T21:04:08.221Z,100977.05
2022-09-20T21:06:40.549Z,100975.67
2022-09-20T21:09:11.650Z,100975.09
2022-09-20T21:11:46.829Z,100976.59
2022-09-20T21:14:16.079Z,100972.00
2022-09-20T21:16:45.801Z,100972.31
2022-09-20T21:19:15.818Z,100974.48
2022-09-20T21:21:48.028Z,100972.47
2022-09-20T21:24:19.803Z,100977.38
2022-09-20T21:26:48.828Z,100986.23
2022-09-20T21:29:17.547Z,100986.26
2022-09-20T21:31:47.313Z,100986.38
2022-09-20T21:34:16.722Z,100980.45
2022-09-20T21:36:45.843Z,100980.47
2022-09-20T21:39:14.516Z,100983.01
2022-09-20T21:41:43.207Z,100985.95
2022-09-20T21:44:12.480Z,100987.12
2022-09-20T21:46:42.292Z,100984.89
2022-09-20T21:49:12.742Z,100986.90
2022-09-20T21:51:43.217Z,100982.88
2022-09-20T21:54:11.926Z,100982.39
2022-09-20T21:56:41.565Z,100978.23
2022-09-20T21:59:10.146Z,100980.58
2022-09-20T22:01:41.525Z,100974.43
2022-09-20T22:04:12.489Z,100976.95
2022-09-20T22:06:45.839Z,100974.20
2022-09-20T22:09:17.988Z,100979.08
2022-09-20T22:11:48.882Z,100981.00
2022-09-20T22:14:20.594Z,100983.42
2022-09-20T22:16:51.538Z,100991.31
2022-09-20T22:19:20.845Z,100989.96
2022-09-20T22:21:51.646Z,100991.46
2022-09-20T22:24:20.361Z,100995.20
2022-09-20T22:26:51.399Z,100994.46
2022-09-20T22:29:20.709Z,100993.83
2022-09-20T22:31:50.626Z,100993.19
2022-09-20T22:34:25.010Z,100992.85
2022-09-20T22:36:54.235Z,100992.20
2022-09-20T22:39:23.032Z,100990.18
2022-09-20T22:41:52.641Z,100986.27
2022-09-20T22:44:21.446Z,100984.58
2022-09-20T22:46:51.031Z,100981.14
2022-09-20T22:49:19.721Z,100986.00
2022-09-20T22:51:48.330Z,100983.33
2022-09-20T22:54:17.091Z,100984.45
2022-09-20T22:56:45.780Z,100978.23
2022-09-20T22:59:16.317Z,100983.39
2022-09-20T23:01:47.905Z,100988.42
2022-09-20T23:04:19.645Z,100983.94
2022-09-20T23:06:55.295Z,100989.09
2022-09-20T23:09:28.173Z,100988.13
2022-09-20T23:11:56.841Z,100990.16
2022-09-20T23:14:25.427Z,100989.92
2022-09-20T23:16:54.287Z,100990.59
2022-09-20T23:19:23.018Z,100992.27
2022-09-20T23:21:51.695Z,100993.31
2022-09-20T23:24:20.587Z,100992.15
2022-09-20T23:26:49.273Z,100995.60
2022-09-20T23:29:18.375Z,100988.48
2022-09-20T23:31:48.294Z,100995.92
2022-09-20T23:34:17.999Z,100995.23
2022-09-20T23:36:47.194Z,100995.26
2022-09-20T23:39:16.320Z,100995.15
2022-09-20T23:41:50.690Z,100994.81
2022-09-20T23:44:20.835Z,100988.98
2022-09-20T23:46:49.617Z,100988.56
2022-09-20T23:49:18.317Z,100984.31
2022-09-20T23:51:46.861Z,100984.15
2022-09-20T23:54:15.698Z,100982.89
2022-09-20T23:56:44.486Z,100982.45
2022-09-20T23:59:13.104Z,100984.24
